Time;durP1;ratioP1;P1;durP2;ratioP2;P2;SDS_P1;SDS_P2;PMS_P1;PMS_P2;Temp;Humidity;BMP_temperature;BMP_pressure;BME280_temperature;BME280_humidity;BME280_pressure;Samples;Min_cycle;Max_cycle;Signal;HPM_P1;HPM_P2
2023/09/04 00:01:36;;;;;;;;;;;;;;;16.73;69.06;102384.91;4194899;28;20008;-65
2023/09/04 00:03:39;;;;;;;;;;;;;;;16.70;69.16;102377.09;4195408;28;20052;-65
2023/09/04 00:05:41;;;;;;;;;;;;;;;16.68;69.19;102379.16;4195502;28;20019;-65
2023/09/04 00:07:44;;;;;;;;;;;;;;;16.64;69.24;102381.34;4194928;28;20023;-65
2023/09/04 00:09:47;;;;;;;;;;;;;;;16.61;69.67;102381.72;4195195;28;20394;-64
2023/09/04 00:11:49;;;;;;;;;;;;;;;16.58;69.64;102382.06;4193862;28;20023;-66
2023/09/04 00:13:50;;;;;;;;;;;;;;;16.56;69.96;102374.06;4195117;28;20019;-65
2023/09/04 00:15:55;;;;;;;;;;;;;;;16.55;70.04;102380.56;4194839;28;20019;-65
2023/09/04 00:17:57;;;;;;;;;;;;;;;16.54;70.01;102378.00;4194694;28;20082;-66
2023/09/04 00:19:59;;;;;;;;;;;;;;;16.52;69.79;102380.91;4195127;28;19928;-65
2023/09/04 00:22:01;;;;;;;;;;;;;;;16.53;70.24;102379.03;4194769;28;20016;-65
2023/09/04 00:24:04;;;;;;;;;;;;;;;16.52;70.16;102382.78;4195315;28;20015;-65
2023/09/04 00:26:06;;;;;;;;;;;;;;;16.49;70.38;102374.94;4209199;28;20015;-65
2023/09/04 00:28:08;;;;;;;;;;;;;;;16.48;70.25;102376.00;4195147;28;20047;-65
2023/09/04 00:30:11;;;;;;;;;;;;;;;16.47;70.59;102372.38;4194753;28;20011;-66
2023/09/04 00:32:13;;;;;;;;;;;;;;;16.45;70.25;102389.97;4194457;28;20020;-66
2023/09/04 00:34:15;;;;;;;;;;;;;;;16.40;70.52;102382.31;4192405;28;20036;-66
2023/09/04 00:36:17;;;;;;;;;;;;;;;16.38;70.70;102390.69;4186983;28;20497;-66
2023/09/04 00:38:19;;;;;;;;;;;;;;;16.37;70.74;102388.97;4196235;28;20402;-65
2023/09/04 00:40:22;;;;;;;;;;;;;;;16.37;70.80;102394.41;4197652;28;20498;-66
2023/09/04 00:42:25;;;;;;;;;;;;;;;16.36;70.93;102397.31;4195702;28;20024;-65
2023/09/04 00:44:27;;;;;;;;;;;;;;;16.34;71.06;102392.03;4194341;28;20023;-66
2023/09/04 00:46:29;;;;;;;;;;;;;;;16.33;70.95;102393.09;4197272;28;20023;-66
2023/09/04 00:48:31;;;;;;;;;;;;;;;16.32;70.98;102394.09;4196509;28;20047;-66
2023/09/04 00:50:33;;;;;;;;;;;;;;;16.31;71.14;102388.81;4197804;28;20359;-66
2023/09/04 00:52:35;;;;;;;;;;;;;;;16.30;71.03;102384.38;4197223;28;20019;-66
2023/09/04 00:54:37;;;;;;;;;;;;;;;16.27;71.24;102376.56;4197348;28;20023;-66
2023/09/04 00:56:40;;;;;;;;;;;;;;;16.28;71.35;102383.72;4197908;28;19971;-65
2023/09/04 00:58:43;;;;;;;;;;;;;;;16.26;71.29;102383.06;4186205;28;20661;-65
2023/09/04 01:00:45;;;;;;;;;;;;;;;16.25;71.30;102382.19;4196984;28;19928;-65
2023/09/04 01:02:47;;;;;;;;;;;;;;;16.24;71.21;102383.22;4197377;28;20023;-64
2023/09/04 01:04:49;;;;;;;;;;;;;;;16.24;71.39;102382.34;4197848;28;20019;-65
2023/09/04 01:06:52;;;;;;;;;;;;;;;16.21;71.47;102365.34;4195632;28;20035;-64
2023/09/04 01:08:56;;;;;;;;;;;;;;;16.20;71.74;102376.41;4195731;28;20023;-65
2023/09/04 01:11:00;;;;;;;;;;;;;;;16.19;71.51;102377.44;4197130;28;19924;-65
2023/09/04 01:13:04;;;;;;;;;;;;;;;16.18;71.49;102381.19;4196157;28;20019;-65
2023/09/04 01:15:07;;;;;;;;;;;;;;;16.17;71.67;102379.47;4197333;28;20446;-65
2023/09/04 01:17:09;;;;;;;;;;;;;;;16.17;71.64;102387.66;4197304;28;20365;-63
2023/09/04 01:19:11;;;;;;;;;;;;;;;16.16;71.95;102391.41;4197132;28;20019;-65
2023/09/04 01:21:14;;;;;;;;;;;;;;;16.11;71.74;102386.50;4195115;28;20011;-65
2023/09/04 01:23:16;;;;;;;;;;;;;;;16.10;71.91;102392.97;4196993;28;20015;-65
2023/09/04 01:25:18;;;;;;;;;;;;;;;16.09;71.96;102388.53;4197485;28;20374;-64
2023/09/04 01:27:21;;;;;;;;;;;;;;;16.07;72.08;102382.41;4195811;28;20478;-65
2023/09/04 01:29:24;;;;;;;;;;;;;;;16.06;72.09;102382.59;4197114;28;20039;-65
2023/09/04 01:31:29;;;;;;;;;;;;;;;16.02;72.06;102385.66;4197410;28;20463;-65
2023/09/04 01:33:33;;;;;;;;;;;;;;;15.99;72.25;102386.00;4197859;28;20011;-64
2023/09/04 01:35:36;;;;;;;;;;;;;;;15.93;72.64;102383.13;4196988;28;20023;-65
2023/09/04 01:37:38;;;;;;;;;;;;;;;15.90;72.84;102389.75;4197197;28;20720;-64
2023/09/04 01:39:40;;;;;;;;;;;;;;;15.89;72.83;102389.94;4196254;28;20023;-65
2023/09/04 01:41:43;;;;;;;;;;;;;;;15.87;72.84;102386.53;4196521;28;19934;-65
2023/09/04 01:43:44;;;;;;;;;;;;;;;15.88;72.78;102390.94;4197106;28;20450;-65
2023/09/04 01:45:46;;;;;;;;;;;;;;;15.89;73.01;102388.03;4196601;28;19928;-65
2023/09/04 01:47:48;;;;;;;;;;;;;;;15.90;72.87;102381.59;4187115;28;20401;-64
2023/09/04 01:49:49;;;;;;;;;;;;;;;15.90;72.97;102376.13;4196320;28;20458;-65
2023/09/04 01:51:51;;;;;;;;;;;;;;;15.91;72.70;102376.97;4196951;28;19929;-63
2023/09/04 01:53:55;;;;;;;;;;;;;;;15.91;72.81;102379.69;4196590;28;20007;-65
2023/09/04 01:55:56;;;;;;;;;;;;;;;15.90;72.79;102380.75;4203691;28;20019;-65
2023/09/04 01:57:58;;;;;;;;;;;;;;;15.89;72.85;102381.75;4188121;28;20027;-64
2023/09/04 02:00:00;;;;;;;;;;;;;;;15.87;72.92;102390.09;4210666;28;20398;-65
2023/09/04 02:02:02;;;;;;;;;;;;;;;15.83;73.07;102381.44;4187427;28;19929;-65
2023/09/04 02:04:05;;;;;;;;;;;;;;;15.82;73.20;102382.44;4197070;28;20019;-64
2023/09/04 02:06:07;;;;;;;;;;;;;;;15.79;72.92;102382.78;4197045;28;20434;-64
2023/09/04 02:08:08;;;;;;;;;;;;;;;15.78;73.06;102386.53;4195391;28;20031;-65
2023/09/04 02:10:15;;;;;;;;;;;;;;;15.78;73.07;102382.94;4196239;28;20372;-65
2023/09/04 02:12:17;;;;;;;;;;;;;;;15.79;72.97;102379.22;4196107;28;20462;-65
2023/09/04 02:14:19;;;;;;;;;;;;;;;15.79;72.97;102379.22;4196430;28;20023;-64
2023/09/04 02:16:22;;;;;;;;;;;;;;;15.78;73.00;102385.69;4195237;28;20034;-64
2023/09/04 02:18:24;;;;;;;;;;;;;;;15.76;72.97;102385.81;4181962;28;20027;-65
2023/09/04 02:20:25;;;;;;;;;;;;;;;15.76;73.14;102383.09;4210909;28;19974;-64
2023/09/04 02:22:27;;;;;;;;;;;;;;;15.75;73.17;102383.25;4211620;28;20051;-64
2023/09/04 02:24:32;;;;;;;;;;;;;;;15.73;73.33;102388.03;4196144;28;20463;-64
2023/09/04 02:26:36;;;;;;;;;;;;;;;15.72;73.31;102381.75;4195217;28;20020;-64
2023/09/04 02:28:38;;;;;;;;;;;;;;;15.72;73.25;102387.19;4195603;28;20028;-65
2023/09/04 02:30:40;;;;;;;;;;;;;;;15.70;73.14;102388.38;4195097;28;20446;-64
2023/09/04 02:32:42;;;;;;;;;;;;;;;15.68;73.23;102392.13;4187864;28;20040;-64
2023/09/04 02:34:44;;;;;;;;;;;;;;;15.67;73.29;102389.56;4196098;28;20454;-64
2023/09/04 02:36:46;;;;;;;;;;;;;;;15.67;73.40;102395.00;4195931;28;20579;-64
2023/09/04 02:38:48;;;;;;;;;;;;;;;15.65;73.33;102387.00;4194333;28;20015;-64
2023/09/04 02:40:50;;;;;;;;;;;;;;;15.65;73.35;102386.16;4195396;28;20023;-64
2023/09/04 02:42:54;;;;;;;;;;;;;;;15.63;73.54;102382.78;4194358;28;19929;-64
2023/09/04 02:44:56;;;;;;;;;;;;;;;15.62;73.59;102386.50;4195781;28;20359;-64
2023/09/04 02:46:58;;;;;;;;;;;;;;;15.61;73.79;102379.34;4194542;28;20362;-64
2023/09/04 02:48:59;;;;;;;;;;;;;;;15.58;73.65;102383.28;4195706;28;20027;-64
2023/09/04 02:51:01;;;;;;;;;;;;;;;15.56;73.95;102388.03;4195398;28;20022;-65
2023/09/04 02:53:04;;;;;;;;;;;;;;;15.55;73.97;102385.47;4195057;28;20055;-64
2023/09/04 02:55:05;;;;;;;;;;;;;;;15.53;73.74;102387.53;4195314;28;20023;-64
2023/09/04 02:57:07;;;;;;;;;;;;;;;15.53;73.95;102391.09;4193584;28;20681;-64
2023/09/04 02:59:10;;;;;;;;;;;;;;;15.52;73.96;102388.53;4193732;28;20019;-65
2023/09/04 03:01:15;;;;;;;;;;;;;;;15.50;74.00;102381.41;4195414;28;20012;-64
2023/09/04 03:03:19;;;;;;;;;;;;;;;15.49;73.90;102387.88;4194181;28;20031;-65
2023/09/04 03:05:21;;;;;;;;;;;;;;;15.46;74.33;102388.19;4195444;28;20022;-65
2023/09/04 03:07:22;;;;;;;;;;;;;;;15.44;74.43;102390.25;4195879;28;20011;-64
2023/09/04 03:09:24;;;;;;;;;;;;;;;15.43;74.07;102387.69;4194756;28;20885;-64
2023/09/04 03:11:26;;;;;;;;;;;;;;;15.43;74.33;102393.13;4193523;28;20526;-64
2023/09/04 03:13:28;;;;;;;;;;;;;;;15.42;74.33;102392.31;4194457;28;20019;-64
2023/09/04 03:15:31;;;;;;;;;;;;;;;15.40;74.64;102397.03;4209872;28;20023;-64
2023/09/04 03:17:34;;;;;;;;;;;;;;;15.39;74.51;102389.03;4193683;28;20015;-64
2023/09/04 03:19:36;;;;;;;;;;;;;;;15.39;74.57;102381.75;4193155;28;20015;-63
2023/09/04 03:21:38;;;;;;;;;;;;;;;15.39;74.69;102392.63;4194174;28;20015;-64
2023/09/04 03:23:40;;;;;;;;;;;;;;;15.38;74.68;102393.66;4193894;28;19925;-64
2023/09/04 03:25:42;;;;;;;;;;;;;;;15.37;74.61;102397.38;4194944;28;20024;-64
2023/09/04 03:27:44;;;;;;;;;;;;;;;15.37;74.60;102400.09;4193807;28;20028;-64
2023/09/04 03:29:46;;;;;;;;;;;;;;;15.37;74.60;102397.38;4193765;28;20023;-63
2023/09/04 03:31:50;;;;;;;;;;;;;;;15.36;74.40;102398.41;4177053;28;19932;-64
2023/09/04 03:33:53;;;;;;;;;;;;;;;15.37;74.61;102404.69;4195525;28;20055;-64
2023/09/04 03:35:57;;;;;;;;;;;;;;;15.37;74.73;102408.25;4194447;28;20020;-65
2023/09/04 03:37:59;;;;;;;;;;;;;;;15.37;74.60;102410.16;4194294;28;20028;-64
2023/09/04 03:40:16;;;;;;;;;;;;;;;15.36;74.24;102416.59;4201992;28;20369;-64
2023/09/04 03:42:18;;;;;;;;;;;;;;;15.37;74.30;102416.44;4194683;28;20008;-65
2023/09/04 03:44:19;;;;;;;;;;;;;;;15.37;74.41;102419.16;4192674;28;19960;-64
2023/09/04 03:46:21;;;;;;;;;;;;;;;15.37;74.46;102421.88;4193699;28;19933;-65
2023/09/04 03:48:24;;;;;;;;;;;;;;;15.38;74.42;102426.31;4195268;28;20019;-64
2023/09/04 03:50:27;;;;;;;;;;;;;;;15.39;74.52;102427.16;4180961;28;20365;-65
2023/09/04 03:52:29;;;;;;;;;;;;;;;15.39;74.41;102421.72;4194662;28;20031;-65
2023/09/04 03:54:31;;;;;;;;;;;;;;;15.39;74.47;102419.00;4193896;28;20047;-65
2023/09/04 03:56:34;;;;;;;;;;;;;;;15.37;74.56;102416.44;4193370;28;20489;-64
2023/09/04 03:58:37;;;;;;;;;;;;;;;15.38;74.84;102420.03;4193501;28;20007;-64
2023/09/04 04:00:39;;;;;;;;;;;;;;;15.38;74.52;102420.88;4195069;28;20380;-65
2023/09/04 04:02:40;;;;;;;;;;;;;;;15.39;74.74;102421.72;4195589;28;20082;-64
2023/09/04 04:04:44;;;;;;;;;;;;;;;15.38;74.63;102434.47;4177084;28;19948;-65
2023/09/04 04:06:46;;;;;;;;;;;;;;;15.38;74.62;102429.03;4195132;28;20015;-63
2023/09/04 04:08:49;;;;;;;;;;;;;;;15.37;74.72;102421.88;4194604;28;20036;-65
2023/09/04 04:10:51;;;;;;;;;;;;;;;15.38;74.73;102428.19;4196273;28;20007;-63
2023/09/04 04:12:53;;;;;;;;;;;;;;;15.38;74.58;102436.38;4195728;28;20020;-65
2023/09/04 04:14:57;;;;;;;;;;;;;;;15.39;74.53;102429.88;4197280;28;20011;-65
2023/09/04 04:16:59;;;;;;;;;;;;;;;15.39;74.52;102433.47;4196487;28;20023;-64
2023/09/04 04:19:01;;;;;;;;;;;;;;;15.39;74.91;102432.59;4196331;28;20641;-65
2023/09/04 04:21:05;;;;;;;;;;;;;;;15.39;74.93;102440.75;4196364;28;20023;-65
2023/09/04 04:23:07;;;;;;;;;;;;;;;15.38;74.63;102442.66;4206349;28;20446;-65
2023/09/04 04:25:09;;;;;;;;;;;;;;;15.39;74.31;102441.63;4198196;28;19932;-65
2023/09/04 04:27:12;;;;;;;;;;;;;;;15.39;74.33;102449.81;4197954;28;20011;-65
2023/09/04 04:29:15;;;;;;;;;;;;;;;15.39;74.31;102457.09;4196126;28;20022;-64
2023/09/04 04:31:17;;;;;;;;;;;;;;;15.38;74.33;102458.13;4195922;28;20759;-65
2023/09/04 04:33:21;;;;;;;;;;;;;;;15.38;74.20;102449.97;4196318;28;20024;-63
2023/09/04 04:35:23;;;;;;;;;;;;;;;15.38;74.29;102452.69;4196240;28;20015;-65
2023/09/04 04:37:26;;;;;;;;;;;;;;;15.37;74.35;102450.97;4198207;28;20007;-65
2023/09/04 04:39:28;;;;;;;;;;;;;;;15.36;74.51;102452.88;4197135;28;20015;-64
2023/09/04 04:41:32;;;;;;;;;;;;;;;15.36;74.47;102452.88;4193476;28;20015;-64
2023/09/04 04:43:34;;;;;;;;;;;;;;;15.36;74.36;102452.88;4195749;28;20020;-65
2023/09/04 04:45:36;;;;;;;;;;;;;;;15.36;74.23;102461.03;4195698;28;19980;-64
2023/09/04 04:47:38;;;;;;;;;;;;;;;15.36;74.21;102452.00;4204790;28;20019;-64
2023/09/04 04:49:40;;;;;;;;;;;;;;;15.35;74.28;102462.03;4193879;28;20062;-65
2023/09/04 04:51:42;;;;;;;;;;;;;;;15.35;74.37;102461.19;4196218;28;20022;-65
2023/09/04 04:53:45;;;;;;;;;;;;;;;15.35;74.32;102461.19;4195881;28;20870;-65
2023/09/04 04:55:47;;;;;;;;;;;;;;;15.34;74.27;102459.47;4197853;28;20373;-64
2023/09/04 04:57:50;;;;;;;;;;;;;;;15.32;74.53;102457.78;4197032;28;20027;-64
2023/09/04 04:59:52;;;;;;;;;;;;;;;15.32;74.39;102456.94;4193769;28;20020;-64
2023/09/04 05:01:56;;;;;;;;;;;;;;;15.30;74.20;102462.53;4195837;28;20030;-64
2023/09/04 05:03:58;;;;;;;;;;;;;;;15.30;74.49;102469.88;4181832;28;20023;-64
2023/09/04 05:06:00;;;;;;;;;;;;;;;15.28;74.18;102466.44;4196064;28;20413;-64
2023/09/04 05:08:03;;;;;;;;;;;;;;;15.27;74.43;102471.03;4187570;28;20019;-64
2023/09/04 05:10:08;;;;;;;;;;;;;;;15.26;74.30;102471.19;4195298;28;20007;-64
2023/09/04 05:12:10;;;;;;;;;;;;;;;15.25;74.47;102469.50;4186424;28;20011;-64
2023/09/04 05:14:13;;;;;;;;;;;;;;;15.26;74.78;102468.47;4188827;28;20501;-65
2023/09/04 05:16:16;;;;;;;;;;;;;;;15.24;74.75;102467.81;4189340;28;20028;-65
2023/09/04 05:18:18;;;;;;;;;;;;;;;15.23;74.98;102472.38;4196203;28;20029;-65
2023/09/04 05:20:21;;;;;;;;;;;;;;;15.24;75.04;102471.38;4196866;28;20046;-64
2023/09/04 05:22:23;;;;;;;;;;;;;;;15.23;74.98;102464.22;4195875;28;19996;-65
2023/09/04 05:24:26;;;;;;;;;;;;;;;15.22;75.40;102470.69;4195111;28;20015;-64
2023/09/04 05:26:29;;;;;;;;;;;;;;;15.21;75.51;102470.84;4196831;28;19924;-64
2023/09/04 05:28:31;;;;;;;;;;;;;;;15.20;75.51;102469.97;4197010;28;20039;-64
2023/09/04 05:30:33;;;;;;;;;;;;;;;15.20;76.02;102464.53;4196932;28;20007;-64
2023/09/04 05:32:35;;;;;;;;;;;;;;;15.21;75.91;102474.41;4196980;28;20020;-65
2023/09/04 05:34:40;;;;;;;;;;;;;;;15.22;75.98;102475.25;4196934;28;20023;-64
2023/09/04 05:36:41;;;;;;;;;;;;;;;15.23;76.41;102469.66;4196147;28;20019;-64
2023/09/04 05:38:43;;;;;;;;;;;;;;;15.24;76.37;102471.38;4196365;28;20023;-64
2023/09/04 05:40:45;;;;;;;;;;;;;;;15.26;76.54;102466.59;4196453;28;20028;-65
2023/09/04 05:42:49;;;;;;;;;;;;;;;15.28;76.50;102467.31;4196472;28;20454;-65
2023/09/04 05:44:51;;;;;;;;;;;;;;;15.30;76.72;102464.41;4197032;28;20342;-65
2023/09/04 05:46:53;;;;;;;;;;;;;;;15.31;76.63;102469.69;4196763;28;19968;-65
2023/09/04 05:48:55;;;;;;;;;;;;;;;15.35;76.85;102469.38;4196423;28;20014;-65
2023/09/04 05:50:56;;;;;;;;;;;;;;;15.37;77.13;102478.22;4194685;28;20439;-65
2023/09/04 05:52:58;;;;;;;;;;;;;;;15.39;76.96;102470.72;4195850;28;20015;-64
2023/09/04 05:55:00;;;;;;;;;;;;;;;15.42;77.19;102468.53;4196510;28;20422;-64
2023/09/04 05:57:02;;;;;;;;;;;;;;;15.45;76.92;102468.19;4196057;28;20015;-65
2023/09/04 05:59:05;;;;;;;;;;;;;;;15.48;76.99;102473.28;4195138;28;20450;-65
2023/09/04 06:01:07;;;;;;;;;;;;;;;15.52;76.85;102465.66;4196215;28;20019;-65
2023/09/04 06:03:09;;;;;;;;;;;;;;;15.58;76.55;102475.00;4196576;28;20043;-65
2023/09/04 06:05:11;;;;;;;;;;;;;;;15.61;76.92;102474.66;4196510;28;20020;-64
2023/09/04 06:07:15;;;;;;;;;;;;;;;15.64;76.89;102477.06;4196231;28;19924;-65
2023/09/04 06:09:17;;;;;;;;;;;;;;;15.68;76.83;102473.00;4195596;28;20035;-65
2023/09/04 06:11:20;;;;;;;;;;;;;;;15.71;77.09;102463.63;4195376;28;20015;-64
2023/09/04 06:13:21;;;;;;;;;;;;;;;15.74;76.91;102475.03;4196070;28;20008;-65
2023/09/04 06:15:24;;;;;;;;;;;;;;;15.77;76.86;102476.63;4196200;28;20027;-65
2023/09/04 06:17:26;;;;;;;;;;;;;;;15.79;76.90;102471.84;4196170;28;20371;-65
2023/09/04 06:19:28;;;;;;;;;;;;;;;15.83;76.67;102473.19;4196167;28;20426;-65
2023/09/04 06:21:30;;;;;;;;;;;;;;;15.87;76.43;102471.84;4196828;28;20059;-65
2023/09/04 06:23:33;;;;;;;;;;;;;;;15.90;76.41;102468.78;4196165;28;20015;-65
2023/09/04 06:25:39;;;;;;;;;;;;;;;15.93;76.58;102468.44;4194759;28;20015;-64
2023/09/04 06:27:41;;;;;;;;;;;;;;;15.98;76.72;102479.66;4197046;28;20478;-62
2023/09/04 06:29:43;;;;;;;;;;;;;;;16.02;76.42;102472.03;4196486;28;20035;-65
2023/09/04 06:31:46;;;;;;;;;;;;;;;16.05;76.53;102468.94;4195101;28;20407;-64
2023/09/04 06:33:48;;;;;;;;;;;;;;;16.08;76.60;102465.88;4195745;28;20012;-65
2023/09/04 06:35:50;;;;;;;;;;;;;;;16.12;76.84;102469.13;4196288;28;20082;-65
2023/09/04 06:37:52;;;;;;;;;;;;;;;16.16;77.16;102467.72;4196085;28;20372;-63
2023/09/04 06:39:54;;;;;;;;;;;;;;;16.20;77.05;102467.22;4195374;28;20011;-64
2023/09/04 06:41:56;;;;;;;;;;;;;;;16.24;76.82;102464.13;4195476;28;20016;-64
2023/09/04 06:44:04;;;;;;;;;;;;;;;16.27;76.97;102461.94;4177534;28;19932;-64
2023/09/04 06:46:06;;;;;;;;;;;;;;;16.30;76.44;102463.44;4195705;28;20019;-64
2023/09/04 06:48:08;;;;;;;;;;;;;;;16.34;76.40;102464.81;4194041;28;19926;-65
2023/09/04 06:50:10;;;;;;;;;;;;;;;16.38;75.92;102471.63;4194118;28;20019;-65
2023/09/04 06:52:12;;;;;;;;;;;;;;;16.42;75.61;102474.84;4194761;28;20024;-65
2023/09/04 06:54:14;;;;;;;;;;;;;;;16.45;74.63;102469.06;4185371;28;20371;-65
2023/09/04 06:56:16;;;;;;;;;;;;;;;16.50;74.21;102472.09;4194121;28;20031;-65
2023/09/04 06:58:18;;;;;;;;;;;;;;;16.54;74.03;102468.03;4195172;28;20067;-65
2023/09/04 07:00:20;;;;;;;;;;;;;;;16.57;73.87;102473.97;4194638;28;20432;-65
2023/09/04 07:02:21;;;;;;;;;;;;;;;16.61;73.87;102458.09;4195847;28;20019;-65
2023/09/04 07:04:25;;;;;;;;;;;;;;;16.65;73.38;102469.53;4195973;28;19928;-65
2023/09/04 07:06:27;;;;;;;;;;;;;;;16.68;73.17;102464.56;4195114;28;20580;-64
2023/09/04 07:08:30;;;;;;;;;;;;;;;16.72;72.71;102459.59;4195579;28;19971;-64
2023/09/04 07:10:32;;;;;;;;;;;;;;;16.76;72.61;102464.53;4194843;28;20035;-65
2023/09/04 07:12:34;;;;;;;;;;;;;;;16.81;72.68;102463.16;4194491;28;20016;-64
2023/09/04 07:14:37;;;;;;;;;;;;;;;16.84;72.35;102463.66;4195683;28;20011;-65
2023/09/04 07:16:39;;;;;;;;;;;;;;;16.89;72.39;102468.59;4193894;28;20019;-65
2023/09/04 07:18:41;;;;;;;;;;;;;;;16.93;72.45;102468.06;4194963;28;20015;-66
2023/09/04 07:20:44;;;;;;;;;;;;;;;16.97;72.19;102459.53;4193965;28;20035;-66
2023/09/04 07:22:49;;;;;;;;;;;;;;;17.01;72.08;102463.63;4194922;28;20027;-66
2023/09/04 07:24:51;;;;;;;;;;;;;;;17.05;72.28;102456.75;4195511;28;20019;-65
2023/09/04 07:26:53;;;;;;;;;;;;;;;17.09;72.24;102452.66;4195549;28;20015;-65
2023/09/04 07:28:55;;;;;;;;;;;;;;;17.14;71.93;102457.56;4195827;28;20379;-66
2023/09/04 07:31:08;;;;;;;;;;;;;;;17.16;71.67;102459.09;4195536;28;20011;-65
2023/09/04 07:33:10;;;;;;;;;;;;;;;17.20;71.81;102462.31;4195411;28;20354;-65
2023/09/04 07:35:12;;;;;;;;;;;;;;;17.22;71.46;102452.91;4196412;28;20038;-63
2023/09/04 07:37:16;;;;;;;;;;;;;;;17.26;71.39;102459.72;4195132;28;20019;-65
2023/09/04 07:39:18;;;;;;;;;;;;;;;17.31;71.28;102455.59;4194766;28;20474;-66
2023/09/04 07:41:20;;;;;;;;;;;;;;;17.33;71.27;102459.84;4194775;28;20023;-65
2023/09/04 07:43:22;;;;;;;;;;;;;;;17.35;71.13;102455.06;4193744;28;20019;-64
2023/09/04 07:45:24;;;;;;;;;;;;;;;17.39;71.06;102455.56;4196091;28;20146;-65
2023/09/04 07:47:26;;;;;;;;;;;;;;;17.41;70.79;102457.09;4213711;28;20019;-65
2023/09/04 07:49:28;;;;;;;;;;;;;;;17.45;70.94;102454.84;4199051;28;19939;-66
2023/09/04 07:51:30;;;;;;;;;;;;;;;17.47;70.67;102456.34;4198730;28;20020;-66
2023/09/04 07:53:34;;;;;;;;;;;;;;;17.51;70.70;102464.16;4199079;28;20358;-63
2023/09/04 07:55:35;;;;;;;;;;;;;;;17.53;70.56;102462.97;4198166;28;20011;-64
2023/09/04 07:57:38;;;;;;;;;;;;;;;17.57;70.32;102467.03;4199045;28;20054;-64
2023/09/04 07:59:40;;;;;;;;;;;;;;;17.60;70.33;102455.75;4198177;28;20028;-64
2023/09/04 08:01:42;;;;;;;;;;;;;;;17.64;70.06;102458.97;4197955;28;20015;-64
2023/09/04 08:03:44;;;;;;;;;;;;;;;17.67;70.16;102458.59;4198756;28;20059;-64
2023/09/04 08:05:46;;;;;;;;;;;;;;;17.69;69.85;102464.72;4198452;28;20024;-64
2023/09/04 08:07:48;;;;;;;;;;;;;;;17.72;69.96;102456.16;4197584;28;20438;-64
2023/09/04 08:09:51;;;;;;;;;;;;;;;17.76;69.71;102456.66;4197925;28;20558;-63
2023/09/04 08:11:52;;;;;;;;;;;;;;;17.78;69.98;102460.06;4198005;28;20027;-63
2023/09/04 08:13:54;;;;;;;;;;;;;;;17.81;69.76;102468.72;4179679;28;19975;-63
2023/09/04 08:15:56;;;;;;;;;;;;;;;17.83;69.58;102460.34;4197549;28;19964;-63
2023/09/04 08:17:58;;;;;;;;;;;;;;;17.85;69.64;102463.75;4198593;28;20350;-63
2023/09/04 08:20:00;;;;;;;;;;;;;;;17.88;69.54;102462.53;4198319;28;20019;-63
2023/09/04 08:22:03;;;;;;;;;;;;;;;17.90;69.55;102458.63;4198123;28;20027;-63
2023/09/04 08:24:06;;;;;;;;;;;;;;;17.93;69.29;102457.38;4198790;28;20028;-63
2023/09/04 08:26:11;;;;;;;;;;;;;;;17.95;69.32;102452.59;4197924;28;20027;-63
2023/09/04 08:28:13;;;;;;;;;;;;;;;17.97;69.09;102454.09;4198035;28;20019;-64
2023/09/04 08:30:15;;;;;;;;;;;;;;;18.00;69.17;102455.63;4197650;28;19931;-64
2023/09/04 08:32:17;;;;;;;;;;;;;;;18.03;68.98;102452.53;4196804;28;20063;-63
2023/09/04 08:34:19;;;;;;;;;;;;;;;18.06;68.74;102451.31;4198399;28;20038;-63
2023/09/04 08:36:21;;;;;;;;;;;;;;;18.08;68.76;102454.69;4198257;28;20032;-64
2023/09/04 08:38:23;;;;;;;;;;;;;;;18.11;68.48;102448.88;4197675;28;20087;-63
2023/09/04 08:40:25;;;;;;;;;;;;;;;18.14;68.82;102452.06;4197606;28;20466;-63
2023/09/04 08:42:28;;;;;;;;;;;;;;;18.17;68.75;102445.38;4197373;28;20039;-63
2023/09/04 08:44:30;;;;;;;;;;;;;;;18.19;68.50;102451.50;4197258;28;20027;-63
2023/09/04 08:46:32;;;;;;;;;;;;;;;18.23;68.39;102443.78;4197780;28;20526;-64
2023/09/04 08:48:36;;;;;;;;;;;;;;;18.25;68.43;102431.63;4197607;28;20028;-63
2023/09/04 08:50:39;;;;;;;;;;;;;;;18.27;68.53;102437.75;4197770;28;20398;-63
2023/09/04 08:52:42;;;;;;;;;;;;;;;18.28;68.31;102439.47;4197455;28;19981;-64
2023/09/04 08:54:44;;;;;;;;;;;;;;;18.31;68.31;102430.88;4179901;28;19925;-63
2023/09/04 08:56:47;;;;;;;;;;;;;;;18.34;68.30;102443.34;4196150;28;20007;-64
2023/09/04 08:58:50;;;;;;;;;;;;;;;18.36;68.10;102438.53;4196059;28;19985;-64
2023/09/04 09:00:52;;;;;;;;;;;;;;;18.40;68.06;102439.00;4197677;28;20030;-64
2023/09/04 09:02:55;;;;;;;;;;;;;;;18.41;68.07;102436.06;4197307;28;20011;-64
2023/09/04 09:04:57;;;;;;;;;;;;;;;18.45;68.02;102442.00;4197578;28;20007;-64
2023/09/04 09:07:00;;;;;;;;;;;;;;;18.47;67.93;102439.94;4197797;28;20027;-64
2023/09/04 09:09:02;;;;;;;;;;;;;;;18.48;67.94;102447.97;4197074;28;20023;-64
2023/09/04 09:11:04;;;;;;;;;;;;;;;18.50;67.86;102445.88;4197041;28;19924;-64
2023/09/04 09:13:06;;;;;;;;;;;;;;;18.52;67.80;102442.97;4197584;28;20026;-64
2023/09/04 09:15:11;;;;;;;;;;;;;;;18.54;67.75;102449.09;4196971;28;20580;-64
2023/09/04 09:17:14;;;;;;;;;;;;;;;18.56;67.80;102441.56;4197542;28;20023;-64
2023/09/04 09:19:16;;;;;;;;;;;;;;;18.58;67.62;102444.94;4196599;28;20103;-64
2023/09/04 09:21:22;;;;;;;;;;;;;;;18.60;67.66;102448.31;4197318;28;20019;-64
2023/09/04 09:23:24;;;;;;;;;;;;;;;18.62;67.45;102443.53;4197391;28;20022;-64
2023/09/04 09:25:25;;;;;;;;;;;;;;;18.64;67.63;102441.44;4197675;28;20450;-64
2023/09/04 09:27:28;;;;;;;;;;;;;;;18.66;67.54;102435.78;4197479;28;20027;-64
2023/09/04 09:29:30;;;;;;;;;;;;;;;18.68;67.41;102441.91;4196935;28;20043;-64
2023/09/04 09:31:34;;;;;;;;;;;;;;;18.70;67.58;102435.22;4195347;28;19936;-65
2023/09/04 09:33:38;;;;;;;;;;;;;;;18.71;67.31;102439.66;4176292;28;19932;-64
2023/09/04 09:35:41;;;;;;;;;;;;;;;18.73;67.24;102434.00;4186019;28;19932;-64
2023/09/04 09:37:45;;;;;;;;;;;;;;;18.76;67.35;102430.03;4194666;28;19924;-64
2023/09/04 09:39:46;;;;;;;;;;;;;;;18.77;67.21;102432.56;4195501;28;20029;-64
2023/09/04 09:41:48;;;;;;;;;;;;;;;18.79;67.38;102426.91;4195797;28;19924;-64
2023/09/04 09:43:50;;;;;;;;;;;;;;;18.81;67.13;102427.53;4197034;28;20011;-64
2023/09/04 09:45:52;;;;;;;;;;;;;;;18.81;67.15;102428.41;4197110;28;20011;-64
2023/09/04 09:47:55;;;;;;;;;;;;;;;18.82;67.07;102429.25;4196793;28;20043;-63
2023/09/04 09:49:58;;;;;;;;;;;;;;;18.83;67.07;102425.50;4196444;28;20026;-64
2023/09/04 09:52:00;;;;;;;;;;;;;;;18.85;67.19;102434.38;4196744;28;20441;-64
2023/09/04 09:54:05;;;;;;;;;;;;;;;18.86;67.03;102427.88;4196896;28;20018;-63
2023/09/04 09:56:07;;;;;;;;;;;;;;;18.88;67.22;102426.63;4196647;28;20031;-64
2023/09/04 09:58:09;;;;;;;;;;;;;;;18.89;67.01;102428.34;4196610;28;20434;-64
2023/09/04 10:00:10;;;;;;;;;;;;;;;18.90;67.10;102430.03;4196612;28;20079;-64
2023/09/04 10:02:14;;;;;;;;;;;;;;;18.92;66.78;102427.13;4197061;28;20479;-64
2023/09/04 10:04:18;;;;;;;;;;;;;;;18.94;67.02;102426.91;4195966;28;20007;-64
2023/09/04 10:06:22;;;;;;;;;;;;;;;18.95;66.73;102425.88;4196178;28;20347;-64
2023/09/04 10:08:24;;;;;;;;;;;;;;;18.97;66.85;102421.91;4194758;28;20023;-63
2023/09/04 10:10:27;;;;;;;;;;;;;;;18.98;66.90;102426.34;4195559;28;20007;-64
2023/09/04 10:12:30;;;;;;;;;;;;;;;18.99;66.90;102436.25;4195387;28;19928;-64
2023/09/04 10:14:33;;;;;;;;;;;;;;;19.01;66.75;102431.44;4196559;28;20366;-64
2023/09/04 10:16:36;;;;;;;;;;;;;;;19.02;66.90;102424.91;4196675;28;20399;-65
2023/09/04 10:18:39;;;;;;;;;;;;;;;19.04;66.72;102431.06;4196234;28;20023;-64
2023/09/04 10:20:43;;;;;;;;;;;;;;;19.05;66.89;102423.69;4195811;28;20003;-64
2023/09/04 10:22:46;;;;;;;;;;;;;;;19.06;67.07;102428.13;4195912;28;20015;-64
2023/09/04 10:24:50;;;;;;;;;;;;;;;19.08;66.97;102426.88;4195980;28;20007;-64
2023/09/04 10:26:53;;;;;;;;;;;;;;;19.11;66.93;102425.66;4196759;28;20019;-64
2023/09/04 10:28:58;;;;;;;;;;;;;;;19.13;66.83;102431.78;4195662;28;20012;-64